createdAt,value
2024-01-19T00:00:39.912Z,34.50
2024-01-19T00:03:06.721Z,34.50
2024-01-19T00:05:33.703Z,34.50
2024-01-19T00:08:00.640Z,34.40
2024-01-19T00:10:27.474Z,34.40
2024-01-19T00:12:54.267Z,34.40
2024-01-19T00:15:26.416Z,34.40
2024-01-19T00:17:59.916Z,34.40
2024-01-19T00:20:26.723Z,34.40
2024-01-19T00:22:53.482Z,34.40
2024-01-19T00:25:20.253Z,34.40
2024-01-19T00:27:47.401Z,34.40
2024-01-19T00:30:14.333Z,34.40
2024-01-19T00:32:41.175Z,34.40
2024-01-19T00:35:09.432Z,34.40
2024-01-19T00:37:37.435Z,34.40
2024-01-19T00:40:11.605Z,34.40
2024-01-19T00:42:41.396Z,34.40
2024-01-19T00:45:09.995Z,34.40
2024-01-19T00:47:37.184Z,34.40
2024-01-19T00:50:05.403Z,34.40
2024-01-19T00:52:32.133Z,34.40
2024-01-19T00:54:58.933Z,34.40
2024-01-19T00:57:25.737Z,34.40
2024-01-19T00:59:52.672Z,34.40
2024-01-19T01:02:20.602Z,34.40
2024-01-19T01:04:47.608Z,34.50
2024-01-19T01:07:14.371Z,34.50
2024-01-19T01:09:41.167Z,34.50
2024-01-19T01:12:07.987Z,34.50
2024-01-19T01:14:34.802Z,34.50
2024-01-19T01:17:01.619Z,34.50
2024-01-19T01:19:28.469Z,34.50
2024-01-19T01:21:55.190Z,34.50
2024-01-19T01:24:23.536Z,34.50
2024-01-19T01:26:50.752Z,34.50
2024-01-19T01:29:17.740Z,34.50
2024-01-19T01:31:44.872Z,34.50
2024-01-19T01:34:11.781Z,34.50
2024-01-19T01:36:38.614Z,34.50
2024-01-19T01:39:05.370Z,34.50
2024-01-19T01:41:32.225Z,34.50
2024-01-19T01:43:59.051Z,34.50
2024-01-19T01:46:25.800Z,34.50
2024-01-19T01:48:52.865Z,34.50
2024-01-19T01:51:19.865Z,34.50
2024-01-19T01:53:46.726Z,34.50
2024-01-19T01:56:13.648Z,34.50
2024-01-19T01:58:40.668Z,34.50
2024-01-19T02:01:07.541Z,34.50
2024-01-19T02:03:35.768Z,34.50
2024-01-19T02:06:02.788Z,34.50
2024-01-19T02:08:29.804Z,34.50
2024-01-19T02:10:56.862Z,34.50
2024-01-19T02:13:23.634Z,34.50
2024-01-19T02:15:50.353Z,34.50
2024-01-19T02:18:17.177Z,34.50
2024-01-19T02:20:43.972Z,34.50
2024-01-19T02:23:15.123Z,34.50
2024-01-19T02:25:42.012Z,34.50
2024-01-19T02:28:09.393Z,34.60
2024-01-19T02:30:36.920Z,34.50
2024-01-19T02:33:04.377Z,34.50
2024-01-19T02:35:31.104Z,34.60
2024-01-19T02:37:57.816Z,34.60
2024-01-19T02:40:24.626Z,34.60
2024-01-19T02:42:51.345Z,34.60
2024-01-19T02:45:18.060Z,34.60
2024-01-19T02:47:44.902Z,34.60
2024-01-19T02:50:11.775Z,34.60
2024-01-19T02:52:38.558Z,34.60
2024-01-19T02:55:06.205Z,34.60
2024-01-19T02:57:32.967Z,34.60
2024-01-19T03:00:02.789Z,34.60
2024-01-19T03:02:29.647Z,34.60
2024-01-19T03:04:56.621Z,34.60
2024-01-19T03:07:24.183Z,34.60
2024-01-19T03:09:50.969Z,34.60
2024-01-19T03:12:18.711Z,34.60
2024-01-19T03:14:45.441Z,34.60
2024-01-19T03:17:13.342Z,34.60
2024-01-19T03:19:40.103Z,34.60
2024-01-19T03:22:07.034Z,34.60
2024-01-19T03:24:33.867Z,34.60
2024-01-19T03:27:00.632Z,34.50
2024-01-19T03:29:27.563Z,34.50
2024-01-19T03:31:55.126Z,34.50
2024-01-19T03:34:22.101Z,34.40
2024-01-19T03:36:48.897Z,34.50
2024-01-19T03:39:16.068Z,34.50
2024-01-19T03:41:42.890Z,34.50
2024-01-19T03:44:09.818Z,34.60
2024-01-19T03:46:36.570Z,34.60
2024-01-19T03:49:03.798Z,34.60
2024-01-19T03:51:30.495Z,34.70
2024-01-19T03:53:57.313Z,34.70
2024-01-19T03:56:26.089Z,34.60
2024-01-19T03:58:52.898Z,34.60
2024-01-19T04:01:19.659Z,34.60
2024-01-19T04:03:46.668Z,34.00
2024-01-19T04:06:13.709Z,34.30
2024-01-19T04:08:40.517Z,34.30
2024-01-19T04:11:07.269Z,34.30
2024-01-19T04:13:34.013Z,34.30
2024-01-19T04:16:00.737Z,34.30
2024-01-19T04:18:27.596Z,34.20
2024-01-19T04:20:54.516Z,34.20
2024-01-19T04:23:21.309Z,34.20
2024-01-19T04:25:48.110Z,34.20
2024-01-19T04:28:14.873Z,34.10
2024-01-19T04:30:41.711Z,34.10
2024-01-19T04:33:08.487Z,34.10
2024-01-19T04:35:35.272Z,34.20
2024-01-19T04:38:02.097Z,34.20
2024-01-19T04:40:28.871Z,34.20
2024-01-19T04:42:56.826Z,34.20
2024-01-19T04:45:23.873Z,34.30
2024-01-19T04:47:50.818Z,34.30
2024-01-19T04:50:17.597Z,34.30
2024-01-19T04:52:44.339Z,34.30
2024-01-19T04:55:11.073Z,34.30
2024-01-19T04:57:37.923Z,34.30
2024-01-19T05:00:06.215Z,34.30
2024-01-19T05:02:34.478Z,34.30
2024-01-19T05:05:01.330Z,34.30
2024-01-19T05:07:28.479Z,34.30
2024-01-19T05:09:55.433Z,34.30
2024-01-19T05:12:23.007Z,34.30
2024-01-19T05:14:49.912Z,34.20
2024-01-19T05:17:16.757Z,34.30
2024-01-19T05:19:43.526Z,34.30
2024-01-19T05:22:10.717Z,34.30
2024-01-19T05:24:44.289Z,34.30
2024-01-19T05:27:11.657Z,34.30
2024-01-19T05:29:38.713Z,34.30
2024-01-19T05:32:05.924Z,34.30
2024-01-19T05:34:32.667Z,34.30
2024-01-19T05:36:59.462Z,34.30
2024-01-19T05:39:26.179Z,34.30
2024-01-19T05:41:53.120Z,34.30
2024-01-19T05:44:19.932Z,34.30
2024-01-19T05:46:46.847Z,34.30
2024-01-19T05:49:13.555Z,34.30
2024-01-19T05:51:40.326Z,34.30
2024-01-19T05:54:07.121Z,34.30
2024-01-19T05:56:33.994Z,34.40
2024-01-19T05:59:00.955Z,34.30
2024-01-19T06:01:27.701Z,34.30
2024-01-19T06:03:54.441Z,34.30
2024-01-19T06:06:21.285Z,34.30
2024-01-19T06:08:48.134Z,34.30
2024-01-19T06:11:14.875Z,34.30
2024-01-19T06:13:41.912Z,34.40
2024-01-19T06:16:08.706Z,34.40
2024-01-19T06:18:35.966Z,34.40
2024-01-19T06:21:02.908Z,34.40
2024-01-19T06:23:29.724Z,34.40
2024-01-19T06:25:56.680Z,34.30
2024-01-19T06:28:23.457Z,34.40
2024-01-19T06:30:50.431Z,34.40
2024-01-19T06:33:17.240Z,34.40
2024-01-19T06:35:44.147Z,34.30
2024-01-19T06:38:11.101Z,34.30
2024-01-19T06:40:37.814Z,34.30
2024-01-19T06:43:04.502Z,34.40
2024-01-19T06:45:31.239Z,34.40
2024-01-19T06:47:58.119Z,34.40
2024-01-19T06:50:24.973Z,34.40
2024-01-19T06:52:53.517Z,34.40
2024-01-19T06:55:20.236Z,34.40
2024-01-19T06:57:47.001Z,34.40
2024-01-19T07:00:14.644Z,34.40
2024-01-19T07:02:41.458Z,34.50
2024-01-19T07:05:08.294Z,34.40
2024-01-19T07:07:35.063Z,34.40
2024-01-19T07:10:01.788Z,34.50
2024-01-19T07:12:28.457Z,34.40
2024-01-19T07:14:55.253Z,34.40
2024-01-19T07:17:22.181Z,34.50
2024-01-19T07:19:49.097Z,34.50
2024-01-19T07:22:15.895Z,34.40
2024-01-19T07:24:42.662Z,34.70
2024-01-19T07:27:09.456Z,34.90
2024-01-19T07:29:36.272Z,35.00
2024-01-19T07:32:03.120Z,35.00
2024-01-19T07:34:30.059Z,34.90
2024-01-19T07:36:56.968Z,34.80
2024-01-19T07:39:27.510Z,34.80
2024-01-19T07:41:54.510Z,34.90
2024-01-19T07:44:21.349Z,35.30
2024-01-19T07:46:49.472Z,35.30
2024-01-19T07:49:22.196Z,35.20
2024-01-19T07:51:50.234Z,35.20
2024-01-19T07:54:18.958Z,35.20
2024-01-19T07:56:45.982Z,35.20
2024-01-19T07:59:12.724Z,35.20
2024-01-19T08:01:40.648Z,35.20
2024-01-19T08:04:07.477Z,35.20
2024-01-19T08:06:34.538Z,35.10
2024-01-19T08:09:01.473Z,35.10
2024-01-19T08:11:28.305Z,35.10
2024-01-19T08:13:54.999Z,35.10
2024-01-19T08:16:21.723Z,35.10
2024-01-19T08:18:48.763Z,35.10
2024-01-19T08:21:15.572Z,35.10
2024-01-19T08:23:42.298Z,35.10
2024-01-19T08:26:09.847Z,35.10
2024-01-19T08:28:36.658Z,35.10
2024-01-19T08:31:03.731Z,35.00
2024-01-19T08:33:30.621Z,35.00
2024-01-19T08:35:57.986Z,35.00
2024-01-19T08:38:24.882Z,35.00
2024-01-19T08:40:51.928Z,35.00
2024-01-19T08:43:18.671Z,35.00
2024-01-19T08:45:45.479Z,35.00
2024-01-19T08:48:12.444Z,35.00
2024-01-19T08:50:39.768Z,34.90
2024-01-19T08:53:06.638Z,34.90
2024-01-19T08:55:33.547Z,34.80
2024-01-19T08:58:00.468Z,34.80
2024-01-19T09:00:27.203Z,34.80
2024-01-19T09:03:00.491Z,34.70
2024-01-19T09:05:31.681Z,34.70
2024-01-19T09:07:58.870Z,34.70
2024-01-19T09:10:25.836Z,34.70
2024-01-19T09:12:52.661Z,34.60
2024-01-19T09:15:19.549Z,34.60
2024-01-19T09:17:46.557Z,34.50
2024-01-19T09:20:13.665Z,34.50
2024-01-19T09:22:40.476Z,34.50
2024-01-19T09:25:07.407Z,34.40
2024-01-19T09:27:34.431Z,34.40
2024-01-19T09:30:01.383Z,34.40
2024-01-19T09:32:28.468Z,34.30
2024-01-19T09:34:55.385Z,34.30
2024-01-19T09:37:22.182Z,34.30
2024-01-19T09:39:49.022Z,34.30
2024-01-19T09:42:26.017Z,34.40
2024-01-19T09:45:06.248Z,34.40
2024-01-19T09:47:57.873Z,34.40
2024-01-19T09:50:32.821Z,34.40
2024-01-19T09:53:00.492Z,34.40
2024-01-19T09:55:28.819Z,34.40
2024-01-19T09:57:57.976Z,34.50
2024-01-19T10:00:25.082Z,34.50
2024-01-19T10:02:54.639Z,34.40
2024-01-19T10:05:23.064Z,34.40
2024-01-19T10:07:56.329Z,34.40
2024-01-19T10:10:23.207Z,34.40
2024-01-19T10:12:50.028Z,34.50
2024-01-19T10:15:18.120Z,34.40
2024-01-19T10:17:46.614Z,34.40
2024-01-19T10:20:15.255Z,34.40
2024-01-19T10:22:42.409Z,34.30
2024-01-19T10:25:13.275Z,33.90
2024-01-19T10:27:53.394Z,33.40
2024-01-19T10:30:22.416Z,33.00
2024-01-19T10:32:51.575Z,32.90
2024-01-19T10:35:22.895Z,33.10
2024-01-19T10:37:50.905Z,33.00
2024-01-19T10:40:18.866Z,32.70
2024-01-19T10:42:47.372Z,32.60
2024-01-19T10:45:22.724Z,32.30
2024-01-19T10:47:51.636Z,32.20
2024-01-19T10:50:19.936Z,31.90
2024-01-19T10:52:48.779Z,31.80
2024-01-19T10:55:20.352Z,31.60
2024-01-19T10:57:49.774Z,31.50
2024-01-19T11:00:27.550Z,31.50
2024-01-19T11:03:00.799Z,31.30
2024-01-19T11:05:28.370Z,31.30
2024-01-19T11:07:56.942Z,31.10
2024-01-19T11:10:24.705Z,31.10
2024-01-19T11:12:56.097Z,31.10
2024-01-19T11:15:29.569Z,31.10
2024-01-19T11:18:00.283Z,31.00
2024-01-19T11:20:29.899Z,31.00
2024-01-19T11:22:56.693Z,30.90
2024-01-19T11:25:39.600Z,30.90
2024-01-19T11:28:25.595Z,31.10
2024-01-19T11:31:16.304Z,31.40
2024-01-19T11:33:44.140Z,31.90
2024-01-19T11:36:11.464Z,32.30
2024-01-19T11:38:46.051Z,32.60
2024-01-19T11:41:35.165Z,32.80
2024-01-19T11:44:07.057Z,32.90
2024-01-19T11:46:45.978Z,33.10
2024-01-19T11:49:31.070Z,33.20
2024-01-19T11:52:00.383Z,33.20
2024-01-19T11:54:33.343Z,33.20
2024-01-19T11:57:19.400Z,33.20
2024-01-19T11:59:46.807Z,33.30
2024-01-19T12:02:32.904Z,33.20
2024-01-19T12:05:03.982Z,33.30
2024-01-19T12:07:30.956Z,33.30
2024-01-19T12:10:17.170Z,33.30
2024-01-19T12:12:43.900Z,33.40
2024-01-19T12:15:12.199Z,33.40
2024-01-19T12:17:44.192Z,33.40
2024-01-19T12:20:17.044Z,33.40
2024-01-19T12:22:45.492Z,33.30
2024-01-19T12:25:15.162Z,33.40
2024-01-19T12:27:42.071Z,33.40
2024-01-19T12:30:12.462Z,33.30
2024-01-19T12:32:39.408Z,33.30
2024-01-19T12:35:06.956Z,33.30
2024-01-19T12:37:33.910Z,33.30
2024-01-19T12:40:18.803Z,33.30
2024-01-19T12:42:45.753Z,33.30
2024-01-19T12:45:13.893Z,33.30
2024-01-19T12:47:48.203Z,33.30
2024-01-19T12:50:22.668Z,33.30
2024-01-19T12:52:52.358Z,33.20
2024-01-19T12:55:28.552Z,33.30
2024-01-19T12:57:55.489Z,33.30
2024-01-19T13:00:27.808Z,33.30
2024-01-19T13:03:02.427Z,33.30
2024-01-19T13:05:31.357Z,33.30
2024-01-19T13:08:04.452Z,33.30
2024-01-19T13:10:31.410Z,33.30
2024-01-19T13:13:14.942Z,33.30
2024-01-19T13:15:41.693Z,33.20
2024-01-19T13:18:12.195Z,33.30
2024-01-19T13:20:40.184Z,33.30
2024-01-19T13:23:08.640Z,33.30
2024-01-19T13:25:36.585Z,33.30
2024-01-19T13:28:03.584Z,33.40
2024-01-19T13:30:31.273Z,33.40
2024-01-19T13:33:04.399Z,33.70
2024-01-19T13:35:31.500Z,34.10
2024-01-19T13:37:58.742Z,34.80
2024-01-19T13:40:25.631Z,35.10
2024-01-19T13:42:52.934Z,35.30
2024-01-19T13:45:19.982Z,35.40
2024-01-19T13:47:46.785Z,35.50
2024-01-19T13:50:13.840Z,36.20
2024-01-19T13:52:40.906Z,36.80
2024-01-19T13:55:08.942Z,37.10
2024-01-19T13:57:35.745Z,37.20
2024-01-19T14:00:02.794Z,36.90
2024-01-19T14:02:31.716Z,36.60
2024-01-19T14:04:58.552Z,36.30
2024-01-19T14:07:26.025Z,36.20
2024-01-19T14:09:53.347Z,35.90
2024-01-19T14:12:20.331Z,35.70
2024-01-19T14:14:49.000Z,35.50
2024-01-19T14:17:15.973Z,35.40
2024-01-19T14:19:42.895Z,35.20
2024-01-19T14:22:09.715Z,35.20
2024-01-19T14:24:36.510Z,35.10
2024-01-19T14:27:04.825Z,35.00
2024-01-19T14:29:32.451Z,35.00
2024-01-19T14:32:01.433Z,34.90
2024-01-19T14:34:36.089Z,34.80
2024-01-19T14:37:11.725Z,34.80
2024-01-19T14:39:40.913Z,34.70
2024-01-19T14:42:08.267Z,34.70
2024-01-19T14:44:35.431Z,34.70
2024-01-19T14:47:04.237Z,34.70
2024-01-19T14:49:33.420Z,34.60
2024-01-19T14:52:01.144Z,34.60
2024-01-19T14:54:29.928Z,34.60
2024-01-19T14:56:56.754Z,34.60
2024-01-19T14:59:23.552Z,34.50
2024-01-19T15:01:52.518Z,34.50
2024-01-19T15:04:19.646Z,34.50
2024-01-19T15:06:47.100Z,34.50
2024-01-19T15:09:13.878Z,34.50
2024-01-19T15:11:40.674Z,34.50
2024-01-19T15:14:07.564Z,34.50
2024-01-19T15:16:34.375Z,34.50
2024-01-19T15:19:01.364Z,34.50
2024-01-19T15:21:28.416Z,34.40
2024-01-19T15:23:55.493Z,34.50
2024-01-19T15:26:24.886Z,34.50
2024-01-19T15:28:51.712Z,34.50
2024-01-19T15:31:22.793Z,34.60
2024-01-19T15:33:50.112Z,34.60
2024-01-19T15:36:17.743Z,34.70
2024-01-19T15:38:44.582Z,34.70
2024-01-19T15:41:11.346Z,34.70
2024-01-19T15:43:38.287Z,34.70
2024-01-19T15:46:05.369Z,34.70
2024-01-19T15:48:32.377Z,34.70
2024-01-19T15:50:59.241Z,34.80
2024-01-19T15:53:26.033Z,34.70
2024-01-19T15:55:52.841Z,34.80
2024-01-19T15:58:19.584Z,34.80
2024-01-19T16:00:46.354Z,34.80
2024-01-19T16:03:13.287Z,34.80
2024-01-19T16:05:40.204Z,34.90
2024-01-19T16:08:07.182Z,34.90
2024-01-19T16:10:34.106Z,34.90
2024-01-19T16:13:00.930Z,34.90
2024-01-19T16:15:27.644Z,34.90
2024-01-19T16:17:54.568Z,34.90
2024-01-19T16:20:21.595Z,34.90
2024-01-19T16:22:48.418Z,35.00
2024-01-19T16:25:15.187Z,35.00
2024-01-19T16:27:41.997Z,35.00
2024-01-19T16:30:09.036Z,35.00
2024-01-19T16:32:35.855Z,35.00
2024-01-19T16:35:03.419Z,35.00
2024-01-19T16:37:30.464Z,35.00
2024-01-19T16:39:57.201Z,35.10
2024-01-19T16:42:24.168Z,35.10
2024-01-19T16:44:50.863Z,35.20
2024-01-19T16:47:17.626Z,35.10
2024-01-19T16:49:44.510Z,35.10
2024-01-19T16:52:11.329Z,35.10
2024-01-19T16:54:38.558Z,35.10
2024-01-19T16:57:07.248Z,35.10
2024-01-19T16:59:35.141Z,35.10
2024-01-19T17:02:01.933Z,35.10
2024-01-19T17:04:28.927Z,35.10
2024-01-19T17:06:55.763Z,35.10
2024-01-19T17:09:22.487Z,35.00
2024-01-19T17:11:49.265Z,35.00
2024-01-19T17:14:16.020Z,35.10
2024-01-19T17:16:43.365Z,35.10
2024-01-19T17:19:13.211Z,35.20
2024-01-19T17:21:41.534Z,35.30
2024-01-19T17:24:11.442Z,35.30
2024-01-19T17:26:44.801Z,35.70
2024-01-19T17:29:15.363Z,35.70
2024-01-19T17:31:42.864Z,35.70
2024-01-19T17:34:11.163Z,35.70
2024-01-19T17:36:39.336Z,35.70
2024-01-19T17:39:06.467Z,35.70
2024-01-19T17:41:38.883Z,35.60
2024-01-19T17:44:05.718Z,36.10
2024-01-19T17:46:32.491Z,36.70
2024-01-19T17:48:59.331Z,36.70
2024-01-19T17:51:26.204Z,37.90
2024-01-19T17:53:53.095Z,38.20
2024-01-19T17:56:20.280Z,38.40
2024-01-19T17:58:47.357Z,38.80
2024-01-19T18:01:14.215Z,38.60
2024-01-19T18:03:41.069Z,38.50
2024-01-19T18:06:08.682Z,38.40
2024-01-19T18:08:35.696Z,38.20
2024-01-19T18:11:03.657Z,38.00
2024-01-19T18:13:31.056Z,37.90
2024-01-19T18:15:58.303Z,37.70
2024-01-19T18:18:31.561Z,37.50
2024-01-19T18:21:03.614Z,37.50
2024-01-19T18:23:30.478Z,37.30
2024-01-19T18:25:57.406Z,37.20
2024-01-19T18:28:26.663Z,37.20
2024-01-19T18:30:54.461Z,37.10
2024-01-19T18:33:21.503Z,37.00
2024-01-19T18:35:48.557Z,37.00
2024-01-19T18:38:15.456Z,36.90
2024-01-19T18:40:42.385Z,36.90
2024-01-19T18:43:09.188Z,36.80
2024-01-19T18:45:35.981Z,36.80
2024-01-19T18:48:05.366Z,36.70
2024-01-19T18:50:32.417Z,36.60
2024-01-19T18:52:59.649Z,36.60
2024-01-19T18:55:26.646Z,36.50
2024-01-19T18:57:53.776Z,36.50
2024-01-19T19:00:22.058Z,36.40
2024-01-19T19:02:49.373Z,36.40
2024-01-19T19:05:16.353Z,36.30
2024-01-19T19:07:44.501Z,36.30
2024-01-19T19:10:11.424Z,36.20
2024-01-19T19:12:38.744Z,36.20
2024-01-19T19:15:07.626Z,36.30
2024-01-19T19:17:36.289Z,36.30
2024-01-19T19:20:04.135Z,36.40
2024-01-19T19:22:31.159Z,36.30
2024-01-19T19:24:58.066Z,36.30
2024-01-19T19:27:24.848Z,36.40
2024-01-19T19:29:51.537Z,36.40
2024-01-19T19:32:18.366Z,36.40
2024-01-19T19:34:48.687Z,36.40
2024-01-19T19:37:15.588Z,36.40
2024-01-19T19:39:42.503Z,36.40
2024-01-19T19:42:09.211Z,36.40
2024-01-19T19:44:35.972Z,36.40
2024-01-19T19:47:02.766Z,36.40
2024-01-19T19:49:29.502Z,36.30
2024-01-19T19:51:58.689Z,36.30
2024-01-19T19:54:25.599Z,36.30
2024-01-19T19:56:52.339Z,36.20
2024-01-19T19:59:19.175Z,36.20
2024-01-19T20:01:49.584Z,36.20
2024-01-19T20:04:16.728Z,36.20
2024-01-19T20:06:43.494Z,36.20
2024-01-19T20:09:10.843Z,36.20
2024-01-19T20:11:37.979Z,36.20
2024-01-19T20:14:05.442Z,36.10
2024-01-19T20:16:32.966Z,36.20
2024-01-19T20:19:05.148Z,36.10
2024-01-19T20:21:31.968Z,36.10
2024-01-19T20:23:59.624Z,36.10
2024-01-19T20:26:26.869Z,36.10
2024-01-19T20:28:54.222Z,36.10
2024-01-19T20:31:21.636Z,36.10
2024-01-19T20:33:49.094Z,36.10
2024-01-19T20:36:15.983Z,36.10
2024-01-19T20:38:42.858Z,36.10
2024-01-19T20:41:13.672Z,36.20
2024-01-19T20:43:40.678Z,36.20
2024-01-19T20:46:07.406Z,36.10
2024-01-19T20:48:34.281Z,36.20
2024-01-19T20:51:01.111Z,36.10
2024-01-19T20:53:28.833Z,36.10
2024-01-19T20:55:55.687Z,36.00
2024-01-19T20:58:22.574Z,36.00
2024-01-19T21:00:51.065Z,36.00
2024-01-19T21:03:18.786Z,35.90
2024-01-19T21:05:45.785Z,35.80
2024-01-19T21:08:13.314Z,35.80
2024-01-19T21:10:40.996Z,35.80
2024-01-19T21:13:08.029Z,35.70
2024-01-19T21:15:34.968Z,35.70
2024-01-19T21:18:02.952Z,35.70
2024-01-19T21:20:29.992Z,35.70
2024-01-19T21:22:57.048Z,35.70
2024-01-19T21:25:23.988Z,35.70
2024-01-19T21:27:50.837Z,35.70
2024-01-19T21:30:17.977Z,35.70
2024-01-19T21:32:45.572Z,35.70
2024-01-19T21:35:12.445Z,35.80
2024-01-19T21:37:39.698Z,35.70
2024-01-19T21:40:09.329Z,35.70
2024-01-19T21:42:44.718Z,35.70
2024-01-19T21:45:13.256Z,35.70
2024-01-19T21:47:40.942Z,35.60
2024-01-19T21:50:09.269Z,35.60
2024-01-19T21:52:36.628Z,35.60
2024-01-19T21:55:04.010Z,35.60
2024-01-19T21:57:31.314Z,35.50
2024-01-19T22:00:00.371Z,35.50
2024-01-19T22:02:27.459Z,35.50
2024-01-19T22:04:54.343Z,35.40
2024-01-19T22:07:21.316Z,35.40
2024-01-19T22:09:48.355Z,35.40
2024-01-19T22:12:15.326Z,35.40
2024-01-19T22:14:42.076Z,35.40
2024-01-19T22:17:09.439Z,35.40
2024-01-19T22:19:36.274Z,35.30
2024-01-19T22:22:03.061Z,35.30
2024-01-19T22:24:29.940Z,35.30
2024-01-19T22:26:56.789Z,35.30
2024-01-19T22:29:23.524Z,35.30
2024-01-19T22:31:50.572Z,35.20
2024-01-19T22:34:21.049Z,35.20
2024-01-19T22:36:50.195Z,35.20
2024-01-19T22:39:17.442Z,35.20
2024-01-19T22:41:44.400Z,35.20
2024-01-19T22:44:11.440Z,35.10
2024-01-19T22:46:38.550Z,35.20
2024-01-19T22:49:06.016Z,35.30
2024-01-19T22:51:32.917Z,35.30
2024-01-19T22:54:00.175Z,35.50
2024-01-19T22:56:26.991Z,35.40
2024-01-19T22:58:53.763Z,35.50
2024-01-19T23:01:21.108Z,35.40
2024-01-19T23:03:48.132Z,35.30
2024-01-19T23:06:15.329Z,35.30
2024-01-19T23:08:42.070Z,35.30
2024-01-19T23:11:10.468Z,35.20
2024-01-19T23:13:37.649Z,35.10
2024-01-19T23:16:04.670Z,35.10
2024-01-19T23:18:31.802Z,34.80
2024-01-19T23:20:58.974Z,35.00
2024-01-19T23:23:25.959Z,35.10
2024-01-19T23:25:52.979Z,35.00
2024-01-19T23:28:20.169Z,34.80
2024-01-19T23:30:48.846Z,34.90
2024-01-19T23:33:16.522Z,35.00
2024-01-19T23:35:43.370Z,34.90
2024-01-19T23:38:10.793Z,35.00
2024-01-19T23:40:37.769Z,35.00
2024-01-19T23:43:04.995Z,34.90
2024-01-19T23:45:32.369Z,34.90
2024-01-19T23:48:03.550Z,34.90
2024-01-19T23:50:30.486Z,34.80
2024-01-19T23:52:57.317Z,34.90
2024-01-19T23:55:24.271Z,35.00
2024-01-19T23:57:51.002Z,34.90
